PAA1776 EDDF-KEWR
Flight info
| Callsign | PAA1776 |
|---|---|
| Flight time | N/A |
| Altitude | 34000 |
| Route | OBOKA5G/25C OBOKA Z29 TORNU DCT GALSO Q63 ERING L179 UGBET Q60 OKSAW DCT BIBPE DCT OKTAD DCT MEDOG DCT PEMOB DCT BAKUR DCT NEBIN/M082F350 DCT 5330N02000W 5330N03000W 53N040W 52N050W DCT TUDEP/N0472F360 DCT RENNY DCT KJOHN DCT HANAA FLOSI4 |
| Aircraft | B772/H-SDE2E3FGHIJ5LORVWXY/LB1D1 |
Departure
| Time | N/A |
|---|---|
| Airport | Frankfurt Main Airport (EDDF) |
Arrival
| Time | 2026-05-04 01:56 |
|---|---|
| Airport | Newark Liberty International Airport (KEWR) |
| Time | Latitude | Longitude | Altitude | Speed | Heading |
|---|---|---|---|---|---|
| 2026-05-03 20:58 | 53.59498 | -26.50211 | 36306 ft | 452 kts | 271° |
| 2026-05-03 20:58 | 53.59430 | -26.55529 | 36308 ft | 453 kts | 271° |
| 2026-05-03 20:59 | 53.59288 | -26.66114 | 36307 ft | 452 kts | 270° |
| 2026-05-03 20:59 | 53.59139 | -26.76604 | 36306 ft | 452 kts | 270° |
| 2026-05-03 21:00 | 53.59006 | -26.85406 | 36308 ft | 452 kts | 270° |
| 2026-05-03 21:00 | 53.58810 | -26.97667 | 36308 ft | 451 kts | 270° |
| 2026-05-03 21:01 | 53.58632 | -27.08156 | 36316 ft | 451 kts | 270° |
| 2026-05-03 21:01 | 53.58445 | -27.18705 | 36317 ft | 450 kts | 270° |
| 2026-05-03 21:02 | 53.58250 | -27.29144 | 36321 ft | 450 kts | 270° |
| 2026-05-03 21:02 | 53.58044 | -27.39654 | 36324 ft | 450 kts | 270° |
| 2026-05-03 21:03 | 53.57831 | -27.50084 | 36325 ft | 450 kts | 270° |
| 2026-05-03 21:03 | 53.57607 | -27.60584 | 36330 ft | 450 kts | 270° |
| 2026-05-03 21:04 | 53.57375 | -27.71029 | 36337 ft | 449 kts | 269° |
| 2026-05-03 21:04 | 53.57133 | -27.81542 | 36336 ft | 449 kts | 269° |
| 2026-05-03 21:05 | 53.56882 | -27.92018 | 36340 ft | 449 kts | 269° |
| 2026-05-03 21:05 | 53.56622 | -28.02483 | 36346 ft | 449 kts | 269° |
| 2026-05-03 21:06 | 53.56355 | -28.12890 | 36345 ft | 449 kts | 269° |
| 2026-05-03 21:06 | 53.56078 | -28.23327 | 36344 ft | 449 kts | 269° |
| 2026-05-03 21:07 | 53.55791 | -28.33790 | 36344 ft | 449 kts | 269° |
| 2026-05-03 21:07 | 53.55495 | -28.44231 | 36346 ft | 449 kts | 269° |
| 2026-05-03 21:08 | 53.55190 | -28.54714 | 36345 ft | 449 kts | 269° |
| 2026-05-03 21:08 | 53.54877 | -28.65118 | 36344 ft | 449 kts | 268° |
| 2026-05-03 21:09 | 53.54553 | -28.75576 | 36348 ft | 449 kts | 268° |
| 2026-05-03 21:09 | 53.54221 | -28.86014 | 36347 ft | 450 kts | 268° |
| 2026-05-03 21:10 | 53.53878 | -28.96502 | 36348 ft | 450 kts | 268° |
| 2026-05-03 21:10 | 53.53526 | -29.06994 | 36348 ft | 450 kts | 268° |
| 2026-05-03 21:11 | 53.53167 | -29.17418 | 36349 ft | 450 kts | 268° |
| 2026-05-03 21:11 | 53.52800 | -29.27817 | 36351 ft | 450 kts | 268° |
| 2026-05-03 21:12 | 53.52421 | -29.38286 | 36351 ft | 450 kts | 268° |
| 2026-05-03 21:12 | 53.52031 | -29.48793 | 36351 ft | 450 kts | 267° |
| 2026-05-03 21:13 | 53.51635 | -29.59235 | 36351 ft | 451 kts | 267° |
| 2026-05-03 21:13 | 53.51227 | -29.69745 | 36445 ft | 452 kts | 266° |
| 2026-05-03 21:14 | 53.51020 | -29.74988 | 36713 ft | 450 kts | 266° |
| 2026-05-03 21:14 | 53.50812 | -29.80173 | 37005 ft | 447 kts | 266° |
| 2026-05-03 21:14 | 53.50603 | -29.85366 | 37191 ft | 447 kts | 266° |
| 2026-05-03 21:14 | 53.50392 | -29.90537 | 37296 ft | 448 kts | 266° |
| 2026-05-03 21:15 | 53.50177 | -29.95754 | 37419 ft | 448 kts | 266° |
| 2026-05-03 21:15 | 53.49960 | -30.00957 | 37564 ft | 448 kts | 267° |
| 2026-05-03 21:15 | 53.49871 | -30.06192 | 37704 ft | 448 kts | 270° |
| 2026-05-03 21:15 | 53.49845 | -30.11382 | 37827 ft | 447 kts | 270° |
| 2026-05-03 21:16 | 53.49815 | -30.16567 | 37938 ft | 447 kts | 270° |
| 2026-05-03 21:16 | 53.49778 | -30.21759 | 38047 ft | 447 kts | 270° |
| 2026-05-03 21:16 | 53.49689 | -30.32155 | 38203 ft | 447 kts | 269° |
| 2026-05-03 21:17 | 53.49601 | -30.40847 | 38334 ft | 446 kts | 269° |
| 2026-05-03 21:17 | 53.49464 | -30.52913 | 38363 ft | 447 kts | 269° |
| 2026-05-03 21:18 | 53.49334 | -30.63347 | 38358 ft | 447 kts | 269° |
| 2026-05-03 21:18 | 53.49194 | -30.73733 | 38365 ft | 447 kts | 268° |
| 2026-05-03 21:19 | 53.49045 | -30.84113 | 38365 ft | 447 kts | 268° |
| 2026-05-03 21:19 | 53.48886 | -30.94471 | 38371 ft | 447 kts | 268° |
| 2026-05-03 21:20 | 53.48719 | -31.04880 | 38370 ft | 448 kts | 268° |
| 2026-05-03 21:20 | 53.48541 | -31.15310 | 38369 ft | 447 kts | 268° |
| 2026-05-03 21:21 | 53.48355 | -31.25689 | 38369 ft | 448 kts | 268° |
| 2026-05-03 21:21 | 53.48160 | -31.36089 | 38370 ft | 447 kts | 268° |
| 2026-05-03 21:22 | 53.47955 | -31.46506 | 38376 ft | 448 kts | 268° |
| 2026-05-03 21:22 | 53.47743 | -31.56864 | 38370 ft | 448 kts | 268° |
| 2026-05-03 21:23 | 53.47519 | -31.67315 | 38377 ft | 448 kts | 267° |
| 2026-05-03 21:23 | 53.47287 | -31.77747 | 38376 ft | 448 kts | 267° |
| 2026-05-03 21:24 | 53.47047 | -31.88113 | 38376 ft | 448 kts | 267° |
| 2026-05-03 21:24 | 53.46797 | -31.98559 | 38374 ft | 449 kts | 267° |
| 2026-05-03 21:25 | 53.46538 | -32.08978 | 38377 ft | 448 kts | 267° |
| 2026-05-03 21:25 | 53.46271 | -32.19353 | 38376 ft | 448 kts | 267° |
| 2026-05-03 21:26 | 53.45993 | -32.29776 | 38369 ft | 448 kts | 267° |
| 2026-05-03 21:26 | 53.45707 | -32.40174 | 38377 ft | 448 kts | 267° |
| 2026-05-03 21:27 | 53.45411 | -32.50612 | 38373 ft | 448 kts | 267° |
| 2026-05-03 21:27 | 53.45108 | -32.61004 | 38376 ft | 448 kts | 267° |
| 2026-05-03 21:28 | 53.44794 | -32.71415 | 38377 ft | 448 kts | 266° |
| 2026-05-03 21:28 | 53.44472 | -32.81787 | 38378 ft | 449 kts | 266° |
| 2026-05-03 21:29 | 53.44140 | -32.92237 | 38381 ft | 449 kts | 266° |
| 2026-05-03 21:29 | 53.43800 | -33.02624 | 38382 ft | 449 kts | 266° |
| 2026-05-03 21:30 | 53.43451 | -33.13011 | 38369 ft | 448 kts | 266° |
| 2026-05-03 21:30 | 53.43091 | -33.23445 | 38389 ft | 449 kts | 266° |
| 2026-05-03 21:31 | 53.42724 | -33.33842 | 38359 ft | 449 kts | 266° |
| 2026-05-03 21:31 | 53.42347 | -33.44244 | 38376 ft | 449 kts | 266° |
| 2026-05-03 21:32 | 53.41960 | -33.54660 | 38376 ft | 449 kts | 266° |
| 2026-05-03 21:32 | 53.41564 | -33.65079 | 38369 ft | 449 kts | 265° |
| 2026-05-03 21:33 | 53.41162 | -33.75431 | 38375 ft | 449 kts | 265° |
| 2026-05-03 21:33 | 53.40749 | -33.85826 | 38383 ft | 449 kts | 265° |
| 2026-05-03 21:34 | 53.40326 | -33.96235 | 38370 ft | 449 kts | 265° |
| 2026-05-03 21:34 | 53.39893 | -34.06673 | 38383 ft | 449 kts | 265° |
| 2026-05-03 21:35 | 53.39455 | -34.17007 | 38377 ft | 448 kts | 265° |
| 2026-05-03 21:35 | 53.39006 | -34.27399 | 38382 ft | 448 kts | 265° |
| 2026-05-03 21:36 | 53.38547 | -34.37804 | 38385 ft | 448 kts | 265° |
| 2026-05-03 21:36 | 53.38081 | -34.48152 | 38378 ft | 448 kts | 265° |
| 2026-05-03 21:37 | 53.37604 | -34.58555 | 38379 ft | 448 kts | 265° |
| 2026-05-03 21:37 | 53.37121 | -34.68886 | 38385 ft | 448 kts | 264° |
| 2026-05-03 21:38 | 53.36626 | -34.79279 | 38381 ft | 448 kts | 264° |
| 2026-05-03 21:38 | 53.36123 | -34.89659 | 38379 ft | 447 kts | 264° |
| 2026-05-03 21:39 | 53.35612 | -34.99997 | 38387 ft | 448 kts | 264° |
| 2026-05-03 21:39 | 53.35092 | -35.10357 | 38371 ft | 448 kts | 264° |
| 2026-05-03 21:40 | 53.34565 | -35.20665 | 38386 ft | 447 kts | 264° |
| 2026-05-03 21:40 | 53.34029 | -35.30966 | 38384 ft | 448 kts | 264° |
| 2026-05-03 21:41 | 53.33482 | -35.41320 | 38389 ft | 447 kts | 264° |
| 2026-05-03 21:41 | 53.32927 | -35.51628 | 38388 ft | 448 kts | 264° |
| 2026-05-03 21:42 | 53.32365 | -35.61910 | 38380 ft | 448 kts | 264° |
| 2026-05-03 21:42 | 53.31793 | -35.72230 | 38384 ft | 448 kts | 264° |
| 2026-05-03 21:43 | 53.31210 | -35.82562 | 38378 ft | 448 kts | 263° |
| 2026-05-03 21:43 | 53.30618 | -35.92902 | 38367 ft | 449 kts | 264° |
| 2026-05-03 21:44 | 53.30016 | -36.03263 | 38379 ft | 447 kts | 263° |
| 2026-05-03 21:44 | 53.29409 | -36.13535 | 38375 ft | 448 kts | 264° |
| 2026-05-03 21:45 | 53.28789 | -36.23882 | 38383 ft | 448 kts | 264° |
| 2026-05-03 21:45 | 53.28164 | -36.34174 | 38381 ft | 449 kts | 264° |
| 2026-05-03 21:46 | 53.27525 | -36.44531 | 38377 ft | 447 kts | 264° |
| 2026-05-03 21:46 | 53.26881 | -36.54825 | 38375 ft | 448 kts | 264° |
| 2026-05-03 21:47 | 53.26226 | -36.65146 | 38375 ft | 448 kts | 263° |
| 2026-05-03 21:47 | 53.25566 | -36.75415 | 38376 ft | 448 kts | 263° |
| 2026-05-03 21:48 | 53.24891 | -36.85766 | 38378 ft | 448 kts | 263° |
| 2026-05-03 21:48 | 53.24210 | -36.96066 | 38373 ft | 449 kts | 263° |
| 2026-05-03 21:49 | 53.23520 | -37.06371 | 38372 ft | 449 kts | 263° |
| 2026-05-03 21:49 | 53.22818 | -37.16715 | 38371 ft | 449 kts | 263° |
| 2026-05-03 21:50 | 53.22110 | -37.27008 | 38371 ft | 448 kts | 263° |
| 2026-05-03 21:50 | 53.21393 | -37.37317 | 38368 ft | 449 kts | 263° |
| 2026-05-03 21:51 | 53.20671 | -37.47559 | 38362 ft | 448 kts | 263° |
| 2026-05-03 21:51 | 53.19936 | -37.57855 | 38365 ft | 449 kts | 263° |
| 2026-05-03 21:52 | 53.19191 | -37.68149 | 38360 ft | 449 kts | 262° |
| 2026-05-03 21:52 | 53.18438 | -37.78447 | 38358 ft | 449 kts | 262° |
| 2026-05-03 21:53 | 53.17676 | -37.88738 | 38357 ft | 449 kts | 262° |
| 2026-05-03 21:53 | 53.16904 | -37.99044 | 38357 ft | 449 kts | 262° |
| 2026-05-03 21:54 | 53.16128 | -38.09272 | 38356 ft | 449 kts | 262° |
| 2026-05-03 21:54 | 53.15337 | -38.19589 | 38354 ft | 449 kts | 262° |
| 2026-05-03 21:55 | 53.14538 | -38.29872 | 38357 ft | 449 kts | 262° |
| 2026-05-03 21:55 | 53.13732 | -38.40145 | 38355 ft | 449 kts | 262° |
| 2026-05-03 21:56 | 53.12920 | -38.50370 | 38356 ft | 449 kts | 262° |
| 2026-05-03 21:56 | 53.12094 | -38.60653 | 38351 ft | 449 kts | 262° |
| 2026-05-03 21:57 | 53.11260 | -38.70934 | 38356 ft | 450 kts | 262° |
| 2026-05-03 21:57 | 53.10421 | -38.81164 | 38354 ft | 449 kts | 262° |
| 2026-05-03 21:58 | 53.09567 | -38.91457 | 38352 ft | 449 kts | 262° |
| 2026-05-03 21:58 | 53.08706 | -39.01719 | 38356 ft | 450 kts | 262° |
| 2026-05-03 21:59 | 53.07844 | -39.11898 | 38356 ft | 449 kts | 262° |
| 2026-05-03 21:59 | 53.06963 | -39.22186 | 38353 ft | 449 kts | 262° |
| 2026-05-03 22:00 | 53.06079 | -39.32394 | 38350 ft | 449 kts | 262° |
| 2026-05-03 22:00 | 53.05183 | -39.42646 | 38351 ft | 450 kts | 262° |
| 2026-05-03 22:01 | 53.04280 | -39.52875 | 38347 ft | 449 kts | 262° |
| 2026-05-03 22:01 | 53.03366 | -39.63114 | 38349 ft | 450 kts | 262° |
| 2026-05-03 22:02 | 53.02443 | -39.73361 | 38344 ft | 450 kts | 261° |
| 2026-05-03 22:02 | 53.01513 | -39.83582 | 38341 ft | 450 kts | 261° |
| 2026-05-03 22:03 | 53.00577 | -39.93767 | 38342 ft | 450 kts | 261° |
| 2026-05-03 22:03 | 52.99686 | -40.04057 | 38332 ft | 450 kts | 264° |
| 2026-05-03 22:04 | 52.99132 | -40.14344 | 38333 ft | 450 kts | 264° |
| 2026-05-03 22:04 | 52.98563 | -40.24625 | 38326 ft | 449 kts | 264° |
| 2026-05-03 22:05 | 52.97975 | -40.34865 | 38333 ft | 450 kts | 264° |
| 2026-05-03 22:05 | 52.97368 | -40.45163 | 38319 ft | 450 kts | 264° |
| 2026-05-03 22:06 | 52.96745 | -40.55516 | 38323 ft | 450 kts | 264° |
| 2026-05-03 22:06 | 52.96116 | -40.65789 | 38336 ft | 451 kts | 263° |
| 2026-05-03 22:07 | 52.95477 | -40.76060 | 38321 ft | 450 kts | 263° |
| 2026-05-03 22:07 | 52.94828 | -40.86359 | 38325 ft | 450 kts | 263° |
| 2026-05-03 22:08 | 52.94173 | -40.96594 | 38318 ft | 450 kts | 263° |
| 2026-05-03 22:08 | 52.93503 | -41.06912 | 38309 ft | 450 kts | 263° |
| 2026-05-03 22:09 | 52.92826 | -41.17209 | 38312 ft | 450 kts | 263° |
| 2026-05-03 22:10 | 52.91797 | -41.32589 | 38315 ft | 451 kts | 263° |
| 2026-05-03 22:10 | 52.91096 | -41.42898 | 38314 ft | 451 kts | 263° |
| 2026-05-03 22:11 | 52.90391 | -41.53122 | 38303 ft | 451 kts | 263° |
| 2026-05-03 22:11 | 52.89675 | -41.63383 | 38312 ft | 451 kts | 263° |
| 2026-05-03 22:12 | 52.88946 | -41.73712 | 38312 ft | 451 kts | 263° |
| 2026-05-03 22:12 | 52.88215 | -41.83930 | 38321 ft | 450 kts | 263° |
| 2026-05-03 22:13 | 52.87473 | -41.94176 | 38307 ft | 450 kts | 263° |
| 2026-05-03 22:13 | 52.86723 | -42.04410 | 38296 ft | 451 kts | 263° |
| 2026-05-03 22:14 | 52.85958 | -42.14719 | 38298 ft | 450 kts | 263° |
| 2026-05-03 22:14 | 52.85189 | -42.24954 | 38294 ft | 450 kts | 263° |
| 2026-05-03 22:15 | 52.84413 | -42.35166 | 38286 ft | 450 kts | 263° |
| 2026-05-03 22:15 | 52.83629 | -42.45370 | 38288 ft | 451 kts | 263° |
| 2026-05-03 22:16 | 52.82833 | -42.55609 | 38285 ft | 450 kts | 263° |
| 2026-05-03 22:16 | 52.82027 | -42.65861 | 38276 ft | 450 kts | 262° |
| 2026-05-03 22:17 | 52.81212 | -42.76107 | 38286 ft | 451 kts | 262° |
| 2026-05-03 22:17 | 52.80390 | -42.86324 | 38288 ft | 451 kts | 262° |
| 2026-05-03 22:18 | 52.79561 | -42.96526 | 38275 ft | 450 kts | 262° |
| 2026-05-03 22:18 | 52.78725 | -43.06699 | 38278 ft | 451 kts | 262° |
| 2026-05-03 22:19 | 52.77872 | -43.16965 | 38269 ft | 451 kts | 262° |
| 2026-05-03 22:19 | 52.77017 | -43.27144 | 38273 ft | 451 kts | 262° |
| 2026-05-03 22:20 | 52.76149 | -43.37367 | 38268 ft | 451 kts | 262° |
| 2026-05-03 22:20 | 52.75273 | -43.47583 | 38265 ft | 451 kts | 262° |
| 2026-05-03 22:21 | 52.74395 | -43.57721 | 38264 ft | 450 kts | 262° |
| 2026-05-03 22:21 | 52.73499 | -43.67955 | 38266 ft | 452 kts | 261° |
| 2026-05-03 22:22 | 52.72598 | -43.78144 | 38263 ft | 450 kts | 261° |
| 2026-05-03 22:22 | 52.71692 | -43.88287 | 38261 ft | 451 kts | 261° |
| 2026-05-03 22:23 | 52.70771 | -43.98490 | 38253 ft | 451 kts | 261° |
| 2026-05-03 22:23 | 52.69846 | -44.08644 | 38254 ft | 451 kts | 261° |
| 2026-05-03 22:24 | 52.68906 | -44.18853 | 38247 ft | 451 kts | 261° |
| 2026-05-03 22:24 | 52.67962 | -44.29016 | 38247 ft | 452 kts | 261° |
| 2026-05-03 22:25 | 52.67006 | -44.39210 | 38240 ft | 451 kts | 261° |
| 2026-05-03 22:25 | 52.66047 | -44.49334 | 38233 ft | 451 kts | 261° |
| 2026-05-03 22:26 | 52.65072 | -44.59535 | 38230 ft | 451 kts | 261° |
| 2026-05-03 22:26 | 52.64090 | -44.69706 | 38227 ft | 451 kts | 260° |
| 2026-05-03 22:27 | 52.63101 | -44.79861 | 38225 ft | 451 kts | 260° |
| 2026-05-03 22:27 | 52.62105 | -44.89993 | 38227 ft | 450 kts | 260° |
| 2026-05-03 22:28 | 52.61100 | -45.00126 | 38214 ft | 451 kts | 260° |
| 2026-05-03 22:28 | 52.60087 | -45.10245 | 38211 ft | 451 kts | 260° |
| 2026-05-03 22:29 | 52.59067 | -45.20344 | 38205 ft | 450 kts | 260° |
| 2026-05-03 22:29 | 52.58030 | -45.30523 | 38197 ft | 451 kts | 260° |
| 2026-05-03 22:30 | 52.56996 | -45.40582 | 38199 ft | 451 kts | 260° |
| 2026-05-03 22:30 | 52.55943 | -45.50739 | 38192 ft | 451 kts | 260° |
| 2026-05-03 22:31 | 52.54890 | -45.60806 | 38191 ft | 451 kts | 260° |
| 2026-05-03 22:31 | 52.53824 | -45.70915 | 38191 ft | 451 kts | 259° |
| 2026-05-03 22:32 | 52.52745 | -45.81044 | 38191 ft | 451 kts | 259° |
| 2026-05-03 22:32 | 52.51658 | -45.91181 | 38183 ft | 451 kts | 259° |
| 2026-05-03 22:33 | 52.50568 | -46.01248 | 38185 ft | 451 kts | 259° |
| 2026-05-03 22:33 | 52.49471 | -46.11311 | 38168 ft | 451 kts | 259° |
| 2026-05-03 22:34 | 52.48360 | -46.21406 | 38176 ft | 451 kts | 259° |
| 2026-05-03 22:34 | 52.47242 | -46.31482 | 38164 ft | 451 kts | 259° |
| 2026-05-03 22:35 | 52.46115 | -46.41560 | 38167 ft | 451 kts | 259° |
| 2026-05-03 22:35 | 52.44983 | -46.51601 | 38156 ft | 450 kts | 259° |
| 2026-05-03 22:36 | 52.43840 | -46.61652 | 38153 ft | 451 kts | 259° |
| 2026-05-03 22:36 | 52.42688 | -46.71715 | 38162 ft | 450 kts | 258° |
| 2026-05-03 22:37 | 52.41531 | -46.81735 | 38163 ft | 451 kts | 258° |
| 2026-05-03 22:37 | 52.40362 | -46.91781 | 38124 ft | 448 kts | 258° |
| 2026-05-03 22:38 | 52.39193 | -47.01746 | 38142 ft | 450 kts | 258° |
| 2026-05-03 22:38 | 52.38006 | -47.11792 | 38136 ft | 449 kts | 258° |
| 2026-05-03 22:39 | 52.36818 | -47.21762 | 38131 ft | 448 kts | 258° |
| 2026-05-03 22:39 | 52.35630 | -47.31664 | 38131 ft | 449 kts | 258° |
| 2026-05-03 22:40 | 52.34418 | -47.41691 | 38129 ft | 448 kts | 258° |
| 2026-05-03 22:40 | 52.33207 | -47.51637 | 38125 ft | 448 kts | 258° |
| 2026-05-03 22:41 | 52.31981 | -47.61623 | 38120 ft | 447 kts | 258° |
| 2026-05-03 22:41 | 52.30755 | -47.71539 | 38119 ft | 447 kts | 257° |
| 2026-05-03 22:42 | 52.29525 | -47.81420 | 38119 ft | 446 kts | 257° |
| 2026-05-03 22:42 | 52.28288 | -47.91277 | 38116 ft | 447 kts | 257° |
| 2026-05-03 22:43 | 52.27039 | -48.01161 | 38113 ft | 446 kts | 257° |
| 2026-05-03 22:43 | 52.25784 | -48.11032 | 38113 ft | 445 kts | 258° |
| 2026-05-03 22:44 | 52.24523 | -48.20865 | 38113 ft | 445 kts | 257° |
| 2026-05-03 22:44 | 52.23249 | -48.30740 | 38102 ft | 445 kts | 257° |
| 2026-05-03 22:45 | 52.21978 | -48.40522 | 38099 ft | 444 kts | 257° |
| 2026-05-03 22:45 | 52.20687 | -48.50381 | 38098 ft | 444 kts | 257° |
| 2026-05-03 22:46 | 52.19402 | -48.60134 | 38089 ft | 443 kts | 257° |
| 2026-05-03 22:46 | 52.18101 | -48.69939 | 38098 ft | 444 kts | 257° |
| 2026-05-03 22:47 | 52.16791 | -48.79750 | 38078 ft | 443 kts | 257° |
| 2026-05-03 22:47 | 52.15483 | -48.89472 | 38092 ft | 442 kts | 257° |
| 2026-05-03 22:48 | 52.14164 | -48.99215 | 38078 ft | 442 kts | 257° |
| 2026-05-03 22:48 | 52.12834 | -49.08974 | 38075 ft | 442 kts | 257° |
| 2026-05-03 22:49 | 52.11498 | -49.18711 | 38073 ft | 441 kts | 257° |
| 2026-05-03 22:49 | 52.10161 | -49.28393 | 38063 ft | 442 kts | 257° |
| 2026-05-03 22:50 | 52.08817 | -49.38062 | 38059 ft | 440 kts | 256° |
| 2026-05-03 22:50 | 52.07462 | -49.47751 | 38000 ft | 441 kts | 257° |
| 2026-05-03 22:51 | 52.06101 | -49.57410 | 38039 ft | 441 kts | 256° |
| 2026-05-03 22:51 | 52.04734 | -49.67057 | 38055 ft | 440 kts | 256° |
| 2026-05-03 22:52 | 52.03360 | -49.76689 | 38060 ft | 441 kts | 256° |
| 2026-05-03 22:52 | 52.01967 | -49.86401 | 38053 ft | 440 kts | 256° |
| 2026-05-03 22:53 | 52.00574 | -49.96018 | 38044 ft | 438 kts | 255° |
| 2026-05-03 22:53 | 51.98593 | -50.05321 | 38048 ft | 439 kts | 249° |
| 2026-05-03 22:54 | 51.96444 | -50.14519 | 38037 ft | 438 kts | 249° |
| 2026-05-03 22:54 | 51.94250 | -50.23735 | 38043 ft | 438 kts | 248° |
| 2026-05-03 22:55 | 51.92047 | -50.32887 | 38042 ft | 439 kts | 248° |
| 2026-05-03 22:55 | 51.89826 | -50.42036 | 38034 ft | 438 kts | 248° |
| 2026-05-03 22:56 | 51.87600 | -50.51154 | 38037 ft | 438 kts | 248° |
| 2026-05-03 22:56 | 51.85352 | -50.60316 | 38039 ft | 438 kts | 248° |
| 2026-05-03 22:57 | 51.83112 | -50.69397 | 38041 ft | 438 kts | 248° |
| 2026-05-03 22:57 | 51.80860 | -50.78493 | 38040 ft | 438 kts | 248° |
| 2026-05-03 22:58 | 51.78587 | -50.87635 | 38033 ft | 438 kts | 248° |
| 2026-05-03 22:58 | 51.76318 | -50.96718 | 38032 ft | 438 kts | 248° |
| 2026-05-03 22:59 | 51.74047 | -51.05776 | 38019 ft | 437 kts | 248° |
| 2026-05-03 22:59 | 51.71780 | -51.14776 | 38021 ft | 438 kts | 248° |
| 2026-05-03 23:00 | 51.69474 | -51.23901 | 38011 ft | 439 kts | 248° |
| 2026-05-03 23:00 | 51.67189 | -51.32900 | 38003 ft | 439 kts | 248° |
| 2026-05-03 23:01 | 51.64872 | -51.41994 | 38005 ft | 438 kts | 248° |
| 2026-05-03 23:01 | 51.62550 | -51.51069 | 37996 ft | 439 kts | 248° |
| 2026-05-03 23:02 | 51.60227 | -51.60107 | 37991 ft | 439 kts | 248° |
| 2026-05-03 23:02 | 51.57893 | -51.69154 | 37993 ft | 441 kts | 247° |
| 2026-05-03 23:03 | 51.55554 | -51.78188 | 37982 ft | 440 kts | 247° |
| 2026-05-03 23:03 | 51.53200 | -51.87241 | 37972 ft | 441 kts | 247° |
| 2026-05-03 23:04 | 51.50831 | -51.96316 | 37968 ft | 441 kts | 247° |
| 2026-05-03 23:04 | 51.48465 | -52.05341 | 37961 ft | 441 kts | 247° |
| 2026-05-03 23:05 | 51.46081 | -52.14397 | 37955 ft | 442 kts | 247° |
| 2026-05-03 23:05 | 51.43693 | -52.23438 | 37965 ft | 440 kts | 248° |
| 2026-05-03 23:06 | 51.41310 | -52.32422 | 37951 ft | 442 kts | 248° |
| 2026-05-03 23:06 | 51.38922 | -52.41392 | 37965 ft | 442 kts | 247° |
| 2026-05-03 23:07 | 51.36525 | -52.50359 | 37967 ft | 441 kts | 248° |
| 2026-05-03 23:07 | 51.34111 | -52.59352 | 37960 ft | 441 kts | 248° |
| 2026-05-03 23:08 | 51.31694 | -52.68321 | 37977 ft | 441 kts | 246° |
| 2026-05-03 23:08 | 51.29267 | -52.77297 | 37973 ft | 441 kts | 246° |
| 2026-05-03 23:09 | 51.26841 | -52.86232 | 37949 ft | 442 kts | 247° |
| 2026-05-03 23:09 | 51.24395 | -52.95205 | 37965 ft | 442 kts | 246° |
| 2026-05-03 23:10 | 51.21957 | -53.04113 | 37981 ft | 440 kts | 246° |
| 2026-05-03 23:10 | 51.19521 | -53.12984 | 37974 ft | 440 kts | 247° |
| 2026-05-03 23:11 | 51.17062 | -53.21903 | 37983 ft | 439 kts | 246° |
| 2026-05-03 23:11 | 51.14661 | -53.30775 | 37975 ft | 438 kts | 247° |
| 2026-05-03 23:12 | 51.12277 | -53.39668 | 37979 ft | 436 kts | 248° |
| 2026-05-03 23:12 | 51.09906 | -53.48465 | 37977 ft | 436 kts | 247° |
| 2026-05-03 23:13 | 51.07516 | -53.57293 | 37982 ft | 434 kts | 248° |
| 2026-05-03 23:13 | 51.05150 | -53.66002 | 37982 ft | 433 kts | 247° |
| 2026-05-03 23:14 | 51.02752 | -53.74787 | 37982 ft | 433 kts | 247° |
| 2026-05-03 23:14 | 51.00367 | -53.83498 | 37985 ft | 432 kts | 246° |
| 2026-05-03 23:15 | 50.97974 | -53.92200 | 37983 ft | 431 kts | 246° |
| 2026-05-03 23:15 | 50.95577 | -54.00883 | 37984 ft | 429 kts | 246° |
| 2026-05-03 23:16 | 50.93183 | -54.09525 | 37987 ft | 429 kts | 246° |
| 2026-05-03 23:16 | 50.90802 | -54.18090 | 37982 ft | 428 kts | 246° |
| 2026-05-03 23:17 | 50.88396 | -54.26715 | 37984 ft | 428 kts | 246° |
| 2026-05-03 23:17 | 50.86008 | -54.35238 | 38005 ft | 425 kts | 246° |
| 2026-05-03 23:18 | 50.83606 | -54.43783 | 37990 ft | 425 kts | 246° |
| 2026-05-03 23:18 | 50.81210 | -54.52277 | 37990 ft | 426 kts | 247° |
| 2026-05-03 23:19 | 50.78809 | -54.60756 | 37991 ft | 423 kts | 246° |
| 2026-05-03 23:19 | 50.76418 | -54.69174 | 37976 ft | 423 kts | 246° |
| 2026-05-03 23:20 | 50.74006 | -54.77632 | 37998 ft | 424 kts | 245° |
| 2026-05-03 23:20 | 50.71593 | -54.86064 | 37993 ft | 420 kts | 245° |
| 2026-05-03 23:21 | 50.69201 | -54.94395 | 37972 ft | 421 kts | 245° |
| 2026-05-03 23:21 | 50.66799 | -55.02728 | 37991 ft | 419 kts | 246° |
| 2026-05-03 23:22 | 50.63183 | -55.15222 | 37972 ft | 420 kts | 246° |
| 2026-05-03 23:22 | 50.60749 | -55.23595 | 37979 ft | 420 kts | 245° |
| 2026-05-03 23:23 | 50.58335 | -55.31867 | 37971 ft | 417 kts | 245° |
| 2026-05-03 23:23 | 50.55911 | -55.40149 | 37975 ft | 418 kts | 245° |
| 2026-05-03 23:24 | 50.53478 | -55.48433 | 37969 ft | 419 kts | 246° |
| 2026-05-03 23:24 | 50.51043 | -55.56694 | 37966 ft | 417 kts | 245° |
| 2026-05-03 23:25 | 50.48617 | -55.64897 | 37969 ft | 418 kts | 245° |
| 2026-05-03 23:25 | 50.46171 | -55.73138 | 37967 ft | 415 kts | 244° |
| 2026-05-03 23:26 | 50.43727 | -55.81346 | 37975 ft | 418 kts | 245° |
| 2026-05-03 23:26 | 50.41284 | -55.89521 | 37967 ft | 416 kts | 244° |
| 2026-05-03 23:27 | 50.38815 | -55.97757 | 37966 ft | 417 kts | 245° |
| 2026-05-03 23:27 | 50.36375 | -56.05868 | 37969 ft | 415 kts | 244° |
| 2026-05-03 23:28 | 50.33908 | -56.14039 | 37965 ft | 416 kts | 244° |
| 2026-05-03 23:28 | 50.31442 | -56.22185 | 37956 ft | 415 kts | 244° |
| 2026-05-03 23:29 | 50.28984 | -56.30275 | 37953 ft | 412 kts | 245° |
| 2026-05-03 23:29 | 50.26522 | -56.38349 | 37941 ft | 415 kts | 244° |
| 2026-05-03 23:30 | 50.24046 | -56.46443 | 37958 ft | 414 kts | 244° |
| 2026-05-03 23:30 | 50.21578 | -56.54488 | 37946 ft | 412 kts | 244° |
| 2026-05-03 23:31 | 50.19102 | -56.62528 | 37927 ft | 413 kts | 244° |
| 2026-05-03 23:31 | 50.16618 | -56.70570 | 37934 ft | 412 kts | 243° |
| 2026-05-03 23:32 | 50.14140 | -56.78567 | 37914 ft | 411 kts | 244° |
| 2026-05-03 23:32 | 50.11649 | -56.86578 | 37942 ft | 412 kts | 243° |
| 2026-05-03 23:33 | 50.09172 | -56.94517 | 37925 ft | 409 kts | 243° |
| 2026-05-03 23:33 | 50.06688 | -57.02457 | 37915 ft | 409 kts | 243° |
| 2026-05-03 23:34 | 50.04187 | -57.10421 | 37918 ft | 412 kts | 243° |
| 2026-05-03 23:34 | 50.01693 | -57.18340 | 37879 ft | 408 kts | 243° |
| 2026-05-03 23:35 | 49.99193 | -57.26253 | 37886 ft | 409 kts | 243° |
| 2026-05-03 23:35 | 49.96694 | -57.34136 | 37878 ft | 409 kts | 243° |
| 2026-05-03 23:36 | 49.94177 | -57.42050 | 37887 ft | 408 kts | 243° |
| 2026-05-03 23:36 | 49.91682 | -57.49874 | 37891 ft | 408 kts | 243° |
| 2026-05-03 23:37 | 49.89168 | -57.57731 | 37886 ft | 405 kts | 243° |
| 2026-05-03 23:37 | 49.86660 | -57.65542 | 37887 ft | 407 kts | 242° |
| 2026-05-03 23:38 | 49.84151 | -57.73336 | 37900 ft | 406 kts | 242° |
| 2026-05-03 23:38 | 49.81632 | -57.81135 | 37893 ft | 404 kts | 242° |
| 2026-05-03 23:39 | 49.79125 | -57.88869 | 37899 ft | 405 kts | 242° |
| 2026-05-03 23:39 | 49.76606 | -57.96622 | 37909 ft | 405 kts | 242° |
| 2026-05-03 23:40 | 49.74066 | -58.04409 | 37919 ft | 404 kts | 243° |
| 2026-05-03 23:40 | 49.71545 | -58.12121 | 37908 ft | 405 kts | 242° |
| 2026-05-03 23:41 | 49.69007 | -58.19856 | 37912 ft | 406 kts | 243° |
| 2026-05-03 23:41 | 49.66461 | -58.27594 | 37917 ft | 404 kts | 242° |
| 2026-05-03 23:42 | 49.63924 | -58.35281 | 37917 ft | 404 kts | 242° |
| 2026-05-03 23:42 | 49.61383 | -58.42957 | 37910 ft | 405 kts | 242° |
| 2026-05-03 23:43 | 49.58821 | -58.50672 | 37912 ft | 405 kts | 242° |
| 2026-05-03 23:43 | 49.56264 | -58.58347 | 37905 ft | 405 kts | 242° |
| 2026-05-03 23:44 | 49.53692 | -58.66046 | 37918 ft | 404 kts | 241° |
| 2026-05-03 23:44 | 49.51132 | -58.73683 | 37919 ft | 406 kts | 241° |
| 2026-05-03 23:45 | 49.48548 | -58.81373 | 37916 ft | 405 kts | 241° |
| 2026-05-03 23:45 | 49.45966 | -58.89030 | 37915 ft | 405 kts | 241° |
| 2026-05-03 23:46 | 49.43371 | -58.96705 | 37911 ft | 406 kts | 241° |
| 2026-05-03 23:46 | 49.40789 | -59.04316 | 37908 ft | 404 kts | 241° |
| 2026-05-03 23:47 | 49.38178 | -59.11991 | 37917 ft | 406 kts | 240° |
| 2026-05-03 23:47 | 49.35576 | -59.19617 | 37916 ft | 405 kts | 240° |
| 2026-05-03 23:48 | 49.32968 | -59.27238 | 37913 ft | 406 kts | 241° |
| 2026-05-03 23:48 | 49.30357 | -59.34846 | 37916 ft | 404 kts | 241° |
| 2026-05-03 23:49 | 49.27749 | -59.42421 | 37910 ft | 405 kts | 240° |
| 2026-05-03 23:49 | 49.25113 | -59.50056 | 37910 ft | 404 kts | 240° |
| 2026-05-03 23:50 | 49.22926 | -59.56371 | 37913 ft | 405 kts | 240° |
| 2026-05-03 23:50 | 49.19867 | -59.65181 | 37909 ft | 405 kts | 240° |
| 2026-05-03 23:51 | 49.17213 | -59.72797 | 37916 ft | 407 kts | 239° |
| 2026-05-03 23:51 | 49.14570 | -59.80363 | 37921 ft | 404 kts | 240° |
| 2026-05-03 23:52 | 49.11908 | -59.87957 | 37921 ft | 406 kts | 240° |
| 2026-05-03 23:52 | 49.09256 | -59.95506 | 37918 ft | 404 kts | 239° |
| 2026-05-03 23:53 | 49.06597 | -60.03048 | 37910 ft | 406 kts | 239° |
| 2026-05-03 23:53 | 49.03929 | -60.10596 | 37910 ft | 406 kts | 240° |
| 2026-05-03 23:54 | 49.01255 | -60.18138 | 37890 ft | 406 kts | 240° |
| 2026-05-03 23:54 | 48.98581 | -60.25658 | 37902 ft | 407 kts | 239° |
| 2026-05-03 23:55 | 48.95883 | -60.33222 | 37900 ft | 406 kts | 239° |
| 2026-05-03 23:55 | 48.93190 | -60.40752 | 37902 ft | 408 kts | 239° |
| 2026-05-03 23:56 | 48.90487 | -60.48289 | 37911 ft | 407 kts | 239° |
| 2026-05-03 23:56 | 48.87782 | -60.55809 | 37896 ft | 407 kts | 239° |
| 2026-05-03 23:57 | 48.85088 | -60.63278 | 37895 ft | 404 kts | 239° |
| 2026-05-03 23:57 | 48.82381 | -60.70759 | 37886 ft | 406 kts | 238° |
| 2026-05-03 23:58 | 48.79658 | -60.78263 | 37903 ft | 408 kts | 238° |
| 2026-05-03 23:58 | 48.76935 | -60.85746 | 37877 ft | 407 kts | 238° |
| 2026-05-03 23:59 | 48.74207 | -60.93221 | 37875 ft | 406 kts | 238° |
| 2026-05-03 23:59 | 48.71479 | -61.00675 | 37865 ft | 406 kts | 238° |
| 2026-05-04 00:00 | 48.68755 | -61.08100 | 37872 ft | 403 kts | 238° |
| 2026-05-04 00:00 | 48.66036 | -61.15485 | 37882 ft | 405 kts | 238° |
| 2026-05-04 00:01 | 48.63300 | -61.22896 | 37867 ft | 406 kts | 238° |
| 2026-05-04 00:01 | 48.60554 | -61.30315 | 37858 ft | 405 kts | 238° |
| 2026-05-04 00:02 | 48.57820 | -61.37683 | 37857 ft | 405 kts | 238° |
| 2026-05-04 00:02 | 48.55068 | -61.45075 | 37866 ft | 404 kts | 238° |
| 2026-05-04 00:03 | 48.52315 | -61.52451 | 37851 ft | 405 kts | 238° |
| 2026-05-04 00:03 | 48.49562 | -61.59805 | 37847 ft | 404 kts | 238° |
| 2026-05-04 00:04 | 48.46782 | -61.67213 | 37876 ft | 405 kts | 237° |
| 2026-05-04 00:04 | 48.44019 | -61.74554 | 37862 ft | 403 kts | 237° |
| 2026-05-04 00:05 | 48.41250 | -61.81887 | 37873 ft | 405 kts | 237° |
| 2026-05-04 00:05 | 48.38618 | -61.89328 | 37847 ft | 404 kts | 238° |
| 2026-05-04 00:06 | 48.36016 | -61.96771 | 37851 ft | 406 kts | 239° |
| 2026-05-04 00:06 | 48.33389 | -62.04241 | 37856 ft | 405 kts | 239° |
| 2026-05-04 00:07 | 48.30750 | -62.11711 | 37853 ft | 406 kts | 238° |
| 2026-05-04 00:07 | 48.28120 | -62.19130 | 37856 ft | 406 kts | 238° |
| 2026-05-04 00:08 | 48.25478 | -62.26559 | 37846 ft | 406 kts | 238° |
| 2026-05-04 00:08 | 48.22815 | -62.34025 | 37846 ft | 405 kts | 238° |
| 2026-05-04 00:09 | 48.20167 | -62.41428 | 37833 ft | 405 kts | 238° |
| 2026-05-04 00:09 | 48.17512 | -62.48830 | 37840 ft | 406 kts | 238° |
| 2026-05-04 00:10 | 48.14830 | -62.56283 | 37835 ft | 407 kts | 238° |
| 2026-05-04 00:10 | 48.12158 | -62.63691 | 37826 ft | 405 kts | 237° |
| 2026-05-04 00:11 | 48.09465 | -62.71134 | 37843 ft | 406 kts | 237° |
| 2026-05-04 00:11 | 48.06783 | -62.78524 | 37822 ft | 407 kts | 237° |
| 2026-05-04 00:12 | 48.04098 | -62.85904 | 37818 ft | 407 kts | 237° |
| 2026-05-04 00:12 | 48.01384 | -62.93342 | 37811 ft | 407 kts | 237° |
| 2026-05-04 00:13 | 47.98669 | -63.00760 | 37816 ft | 410 kts | 237° |
| 2026-05-04 00:13 | 47.95964 | -63.08135 | 37778 ft | 407 kts | 237° |
| 2026-05-04 00:14 | 47.93241 | -63.15533 | 37803 ft | 410 kts | 237° |
| 2026-05-04 00:14 | 47.90502 | -63.22958 | 37803 ft | 409 kts | 237° |
| 2026-05-04 00:15 | 47.87755 | -63.30380 | 37802 ft | 411 kts | 237° |
| 2026-05-04 00:15 | 47.84990 | -63.37830 | 37803 ft | 413 kts | 237° |
| 2026-05-04 00:16 | 47.82235 | -63.45235 | 37864 ft | 413 kts | 237° |
| 2026-05-04 00:16 | 47.80843 | -63.48967 | 38009 ft | 413 kts | 237° |
| 2026-05-04 00:16 | 47.79454 | -63.52687 | 38127 ft | 413 kts | 237° |
| 2026-05-04 00:17 | 47.78055 | -63.56430 | 38241 ft | 413 kts | 237° |
| 2026-05-04 00:17 | 47.76680 | -63.60102 | 38302 ft | 414 kts | 237° |
| 2026-05-04 00:17 | 47.75268 | -63.63868 | 38405 ft | 415 kts | 237° |
| 2026-05-04 00:17 | 47.73869 | -63.67593 | 38535 ft | 415 kts | 236° |
| 2026-05-04 00:18 | 47.72467 | -63.71321 | 38638 ft | 416 kts | 237° |
| 2026-05-04 00:18 | 47.71056 | -63.75068 | 38702 ft | 416 kts | 237° |
| 2026-05-04 00:18 | 47.68224 | -63.82573 | 38846 ft | 419 kts | 237° |
| 2026-05-04 00:19 | 47.66814 | -63.86300 | 39005 ft | 417 kts | 237° |
| 2026-05-04 00:19 | 47.65399 | -63.90037 | 39048 ft | 419 kts | 237° |
| 2026-05-04 00:19 | 47.62537 | -63.97580 | 39158 ft | 421 kts | 237° |
| 2026-05-04 00:20 | 47.59669 | -64.05115 | 39284 ft | 422 kts | 237° |
| 2026-05-04 00:20 | 47.58239 | -64.08866 | 39462 ft | 420 kts | 237° |
| 2026-05-04 00:20 | 47.56815 | -64.12595 | 39513 ft | 420 kts | 237° |
| 2026-05-04 00:21 | 47.53928 | -64.20139 | 39605 ft | 422 kts | 237° |
| 2026-05-04 00:21 | 47.51055 | -64.27625 | 39757 ft | 421 kts | 237° |
| 2026-05-04 00:22 | 47.48154 | -64.35165 | 39803 ft | 421 kts | 237° |
| 2026-05-04 00:22 | 47.45272 | -64.42632 | 39801 ft | 421 kts | 237° |
| 2026-05-04 00:23 | 47.42378 | -64.50109 | 39802 ft | 421 kts | 237° |
| 2026-05-04 00:23 | 47.39482 | -64.57570 | 39786 ft | 422 kts | 237° |
| 2026-05-04 00:24 | 47.36567 | -64.65061 | 39784 ft | 422 kts | 236° |
| 2026-05-04 00:24 | 47.33654 | -64.72528 | 39804 ft | 422 kts | 236° |
| 2026-05-04 00:25 | 47.30724 | -64.80016 | 39787 ft | 422 kts | 237° |
| 2026-05-04 00:25 | 47.27795 | -64.87479 | 39787 ft | 423 kts | 237° |
| 2026-05-04 00:26 | 47.24849 | -64.94966 | 39789 ft | 423 kts | 236° |
| 2026-05-04 00:26 | 47.21912 | -65.02410 | 39784 ft | 423 kts | 236° |
| 2026-05-04 00:27 | 47.18969 | -65.09848 | 39783 ft | 422 kts | 236° |
| 2026-05-04 00:27 | 47.16016 | -65.17292 | 39767 ft | 422 kts | 236° |
| 2026-05-04 00:28 | 47.13076 | -65.24681 | 39773 ft | 423 kts | 236° |
| 2026-05-04 00:28 | 47.10101 | -65.32139 | 39771 ft | 423 kts | 236° |
| 2026-05-04 00:29 | 47.07146 | -65.39525 | 39773 ft | 422 kts | 237° |
| 2026-05-04 00:29 | 47.04181 | -65.46917 | 39764 ft | 422 kts | 237° |
| 2026-05-04 00:30 | 47.01227 | -65.54262 | 39757 ft | 422 kts | 236° |
| 2026-05-04 00:30 | 46.98243 | -65.61661 | 39761 ft | 421 kts | 236° |
| 2026-05-04 00:31 | 46.95266 | -65.69022 | 39757 ft | 422 kts | 236° |
| 2026-05-04 00:31 | 46.92288 | -65.76367 | 39753 ft | 422 kts | 236° |
| 2026-05-04 00:32 | 46.89285 | -65.83753 | 39768 ft | 423 kts | 236° |
| 2026-05-04 00:32 | 46.86277 | -65.91133 | 39774 ft | 424 kts | 236° |
| 2026-05-04 00:33 | 46.81759 | -66.02178 | 39749 ft | 424 kts | 236° |
| 2026-05-04 00:34 | 46.78737 | -66.09541 | 39760 ft | 425 kts | 236° |
| 2026-05-04 00:34 | 46.75705 | -66.16909 | 39753 ft | 426 kts | 236° |
| 2026-05-04 00:35 | 46.72666 | -66.24273 | 39745 ft | 426 kts | 236° |
| 2026-05-04 00:35 | 46.69608 | -66.31668 | 39743 ft | 426 kts | 236° |
| 2026-05-04 00:36 | 46.66562 | -66.39008 | 39736 ft | 427 kts | 236° |
| 2026-05-04 00:36 | 46.63485 | -66.46407 | 39730 ft | 428 kts | 236° |
| 2026-05-04 00:37 | 46.60418 | -66.53759 | 39729 ft | 429 kts | 236° |
| 2026-05-04 00:37 | 46.57336 | -66.61129 | 39719 ft | 428 kts | 236° |
| 2026-05-04 00:38 | 46.54254 | -66.68479 | 39728 ft | 427 kts | 235° |
| 2026-05-04 00:38 | 46.51165 | -66.75828 | 39720 ft | 428 kts | 235° |
| 2026-05-04 00:39 | 46.48056 | -66.83205 | 39709 ft | 428 kts | 235° |
| 2026-05-04 00:39 | 46.44968 | -66.90510 | 39715 ft | 428 kts | 235° |
| 2026-05-04 00:40 | 46.41855 | -66.97855 | 39717 ft | 429 kts | 235° |
| 2026-05-04 00:40 | 46.38744 | -67.05178 | 39707 ft | 429 kts | 235° |
| 2026-05-04 00:41 | 46.35623 | -67.12503 | 39724 ft | 430 kts | 236° |
| 2026-05-04 00:41 | 46.32475 | -67.19873 | 39718 ft | 430 kts | 236° |
| 2026-05-04 00:42 | 46.29328 | -67.27219 | 39709 ft | 431 kts | 235° |
| 2026-05-04 00:42 | 46.26191 | -67.34527 | 39728 ft | 430 kts | 235° |
| 2026-05-04 00:43 | 46.23038 | -67.41848 | 39720 ft | 431 kts | 235° |
| 2026-05-04 00:43 | 46.19897 | -67.49126 | 39723 ft | 430 kts | 236° |
| 2026-05-04 00:44 | 46.16745 | -67.56409 | 39726 ft | 430 kts | 236° |
| 2026-05-04 00:44 | 46.13575 | -67.63714 | 39731 ft | 430 kts | 235° |
| 2026-05-04 00:45 | 46.10405 | -67.70998 | 39734 ft | 431 kts | 235° |
| 2026-05-04 00:45 | 46.07233 | -67.78271 | 39728 ft | 431 kts | 235° |
| 2026-05-04 00:46 | 46.04024 | -67.85609 | 39720 ft | 432 kts | 235° |
| 2026-05-04 00:46 | 46.00838 | -67.92873 | 39721 ft | 432 kts | 235° |
| 2026-05-04 00:47 | 45.97634 | -68.00162 | 39712 ft | 433 kts | 235° |
| 2026-05-04 00:47 | 45.94423 | -68.07446 | 39716 ft | 432 kts | 235° |
| 2026-05-04 00:48 | 45.91213 | -68.14709 | 39713 ft | 433 kts | 235° |
| 2026-05-04 00:48 | 45.87977 | -68.22012 | 39729 ft | 434 kts | 235° |
| 2026-05-04 00:49 | 45.84744 | -68.29288 | 39725 ft | 435 kts | 235° |
| 2026-05-04 00:49 | 45.81505 | -68.36562 | 39721 ft | 435 kts | 235° |
| 2026-05-04 00:50 | 45.78249 | -68.43853 | 39726 ft | 435 kts | 235° |
| 2026-05-04 00:50 | 45.74984 | -68.51148 | 39726 ft | 436 kts | 235° |
| 2026-05-04 00:51 | 45.71719 | -68.58419 | 39730 ft | 436 kts | 235° |
| 2026-05-04 00:51 | 45.68453 | -68.65678 | 39746 ft | 436 kts | 234° |
| 2026-05-04 00:52 | 45.65171 | -68.72953 | 39744 ft | 436 kts | 234° |
| 2026-05-04 00:52 | 45.61883 | -68.80220 | 39746 ft | 437 kts | 234° |
| 2026-05-04 00:53 | 45.58610 | -68.87439 | 39745 ft | 436 kts | 234° |
| 2026-05-04 00:53 | 45.55324 | -68.94666 | 39740 ft | 436 kts | 234° |
| 2026-05-04 00:54 | 45.52012 | -69.01931 | 39731 ft | 436 kts | 234° |
| 2026-05-04 00:54 | 45.48738 | -69.09096 | 39726 ft | 436 kts | 234° |
| 2026-05-04 00:55 | 45.45419 | -69.16338 | 39723 ft | 437 kts | 234° |
| 2026-05-04 00:55 | 45.42113 | -69.23537 | 39725 ft | 437 kts | 234° |
| 2026-05-04 00:56 | 45.38792 | -69.30747 | 39724 ft | 437 kts | 234° |
| 2026-05-04 00:56 | 45.35468 | -69.37948 | 39725 ft | 438 kts | 235° |
| 2026-05-04 00:57 | 45.32125 | -69.45170 | 39726 ft | 438 kts | 235° |
| 2026-05-04 00:57 | 45.28782 | -69.52374 | 39727 ft | 439 kts | 235° |
| 2026-05-04 00:58 | 45.25439 | -69.59562 | 39724 ft | 439 kts | 234° |
| 2026-05-04 00:58 | 45.22061 | -69.66805 | 39722 ft | 439 kts | 234° |
| 2026-05-04 00:59 | 45.18704 | -69.73983 | 39724 ft | 439 kts | 234° |
| 2026-05-04 00:59 | 45.15347 | -69.81145 | 39733 ft | 440 kts | 234° |
| 2026-05-04 01:00 | 45.11957 | -69.88359 | 39724 ft | 440 kts | 234° |
| 2026-05-04 01:00 | 45.08578 | -69.95532 | 39731 ft | 441 kts | 234° |
| 2026-05-04 01:01 | 45.05183 | -70.02718 | 39735 ft | 441 kts | 234° |
| 2026-05-04 01:01 | 45.01784 | -70.09898 | 39722 ft | 441 kts | 234° |
| 2026-05-04 01:02 | 44.98367 | -70.17098 | 39715 ft | 442 kts | 234° |
| 2026-05-04 01:02 | 44.94954 | -70.24268 | 39708 ft | 442 kts | 234° |
| 2026-05-04 01:03 | 44.91547 | -70.31412 | 39714 ft | 442 kts | 234° |
| 2026-05-04 01:03 | 44.88104 | -70.38609 | 39727 ft | 442 kts | 234° |
| 2026-05-04 01:04 | 44.84683 | -70.45745 | 39727 ft | 443 kts | 234° |
| 2026-05-04 01:04 | 44.81233 | -70.52922 | 39725 ft | 443 kts | 235° |
| 2026-05-04 01:05 | 44.77782 | -70.60086 | 39712 ft | 444 kts | 234° |
| 2026-05-04 01:05 | 44.74336 | -70.67220 | 39699 ft | 443 kts | 234° |
| 2026-05-04 01:06 | 44.70868 | -70.74380 | 39690 ft | 444 kts | 234° |
| 2026-05-04 01:06 | 44.67413 | -70.81497 | 39700 ft | 443 kts | 234° |
| 2026-05-04 01:07 | 44.63943 | -70.88627 | 39705 ft | 445 kts | 234° |
| 2026-05-04 01:07 | 44.60448 | -70.95792 | 39721 ft | 445 kts | 234° |
| 2026-05-04 01:08 | 44.56976 | -71.02891 | 39724 ft | 445 kts | 234° |
| 2026-05-04 01:08 | 44.53476 | -71.10028 | 39733 ft | 444 kts | 234° |
| 2026-05-04 01:09 | 44.49985 | -71.17133 | 39745 ft | 445 kts | 234° |
| 2026-05-04 01:09 | 44.46480 | -71.24246 | 39755 ft | 445 kts | 234° |
| 2026-05-04 01:10 | 44.42987 | -71.31317 | 39761 ft | 445 kts | 234° |
| 2026-05-04 01:10 | 44.39474 | -71.38412 | 39771 ft | 446 kts | 234° |
| 2026-05-04 01:11 | 44.35942 | -71.45530 | 39775 ft | 445 kts | 234° |
| 2026-05-04 01:11 | 44.32432 | -71.52583 | 39770 ft | 445 kts | 235° |
| 2026-05-04 01:12 | 44.28918 | -71.59630 | 39776 ft | 445 kts | 234° |
| 2026-05-04 01:12 | 44.25388 | -71.66689 | 39787 ft | 445 kts | 234° |
| 2026-05-04 01:13 | 44.21843 | -71.73749 | 39779 ft | 445 kts | 233° |
| 2026-05-04 01:13 | 44.18203 | -71.80690 | 39780 ft | 446 kts | 233° |
| 2026-05-04 01:14 | 44.14523 | -71.87658 | 39789 ft | 446 kts | 233° |
| 2026-05-04 01:14 | 44.10876 | -71.94542 | 39797 ft | 446 kts | 233° |
| 2026-05-04 01:15 | 44.07193 | -72.01473 | 39792 ft | 446 kts | 233° |
| 2026-05-04 01:15 | 44.03508 | -72.08392 | 39802 ft | 446 kts | 233° |
| 2026-05-04 01:16 | 43.99823 | -72.15292 | 39809 ft | 446 kts | 233° |
| 2026-05-04 01:16 | 43.96145 | -72.22163 | 39804 ft | 446 kts | 233° |
| 2026-05-04 01:17 | 43.92444 | -72.29061 | 39809 ft | 446 kts | 233° |
| 2026-05-04 01:17 | 43.88763 | -72.35904 | 39814 ft | 445 kts | 233° |
| 2026-05-04 01:18 | 43.85070 | -72.42754 | 39816 ft | 446 kts | 233° |
| 2026-05-04 01:18 | 43.81356 | -72.49625 | 39812 ft | 445 kts | 233° |
| 2026-05-04 01:19 | 43.77643 | -72.56481 | 39812 ft | 446 kts | 233° |
| 2026-05-04 01:19 | 43.73949 | -72.63285 | 39810 ft | 445 kts | 233° |
| 2026-05-04 01:20 | 43.70241 | -72.70099 | 39813 ft | 445 kts | 233° |
| 2026-05-04 01:20 | 43.66526 | -72.76909 | 39814 ft | 446 kts | 233° |
| 2026-05-04 01:21 | 43.62809 | -72.83707 | 39823 ft | 445 kts | 233° |
| 2026-05-04 01:21 | 43.59090 | -72.90493 | 39607 ft | 438 kts | 233° |
| 2026-05-04 01:21 | 43.57280 | -72.93790 | 39007 ft | 438 kts | 233° |
| 2026-05-04 01:22 | 43.55422 | -72.97172 | 38120 ft | 444 kts | 233° |
| 2026-05-04 01:22 | 43.53568 | -73.00540 | 37284 ft | 450 kts | 233° |
| 2026-05-04 01:22 | 43.51691 | -73.03948 | 36671 ft | 452 kts | 233° |
| 2026-05-04 01:22 | 43.49788 | -73.07398 | 36199 ft | 450 kts | 233° |
| 2026-05-04 01:23 | 43.47915 | -73.10792 | 35739 ft | 448 kts | 233° |
| 2026-05-04 01:23 | 43.46037 | -73.14188 | 35245 ft | 447 kts | 234° |
| 2026-05-04 01:23 | 43.44147 | -73.17602 | 34666 ft | 448 kts | 234° |
| 2026-05-04 01:23 | 43.42257 | -73.21014 | 34014 ft | 451 kts | 234° |
| 2026-05-04 01:24 | 43.40362 | -73.24429 | 33356 ft | 454 kts | 234° |
| 2026-05-04 01:24 | 43.38461 | -73.27854 | 32851 ft | 455 kts | 234° |
| 2026-05-04 01:24 | 43.36554 | -73.31283 | 32329 ft | 457 kts | 234° |
| 2026-05-04 01:24 | 43.34628 | -73.34744 | 31855 ft | 456 kts | 234° |
| 2026-05-04 01:25 | 43.32701 | -73.38201 | 31304 ft | 460 kts | 235° |
| 2026-05-04 01:25 | 43.30757 | -73.41686 | 30594 ft | 468 kts | 235° |
| 2026-05-04 01:25 | 43.28786 | -73.45214 | 29900 ft | 468 kts | 235° |
| 2026-05-04 01:25 | 43.26830 | -73.48708 | 29159 ft | 457 kts | 235° |
| 2026-05-04 01:26 | 43.24924 | -73.52111 | 28318 ft | 448 kts | 235° |
| 2026-05-04 01:26 | 43.22998 | -73.55411 | 27373 ft | 444 kts | 231° |
| 2026-05-04 01:26 | 43.20792 | -73.58330 | 26392 ft | 443 kts | 223° |
| 2026-05-04 01:26 | 43.18290 | -73.60780 | 25407 ft | 442 kts | 214° |
| 2026-05-04 01:27 | 43.15595 | -73.62670 | 24467 ft | 440 kts | 206° |
| 2026-05-04 01:27 | 43.12717 | -73.64071 | 23919 ft | 432 kts | 202° |
| 2026-05-04 01:27 | 43.09887 | -73.65334 | 23924 ft | 437 kts | 201° |
| 2026-05-04 01:27 | 43.06940 | -73.66631 | 23864 ft | 445 kts | 201° |
| 2026-05-04 01:28 | 43.03986 | -73.67914 | 23860 ft | 443 kts | 201° |
| 2026-05-04 01:28 | 43.01059 | -73.69174 | 23863 ft | 442 kts | 201° |
| 2026-05-04 01:28 | 42.98164 | -73.70414 | 23864 ft | 442 kts | 201° |
| 2026-05-04 01:28 | 42.95220 | -73.71668 | 23870 ft | 442 kts | 201° |
| 2026-05-04 01:29 | 42.92320 | -73.72898 | 23723 ft | 434 kts | 201° |
| 2026-05-04 01:29 | 42.89447 | -73.74115 | 23128 ft | 433 kts | 201° |
| 2026-05-04 01:29 | 42.86596 | -73.75320 | 22410 ft | 434 kts | 201° |
| 2026-05-04 01:29 | 42.83714 | -73.76537 | 21825 ft | 432 kts | 200° |
| 2026-05-04 01:30 | 42.80833 | -73.77749 | 21318 ft | 428 kts | 201° |
| 2026-05-04 01:30 | 42.78004 | -73.78938 | 20817 ft | 424 kts | 200° |
| 2026-05-04 01:30 | 42.75219 | -73.80107 | 20292 ft | 421 kts | 201° |
| 2026-05-04 01:30 | 42.72459 | -73.81303 | 19918 ft | 414 kts | 202° |
| 2026-05-04 01:31 | 42.69711 | -73.82546 | 19895 ft | 418 kts | 202° |
| 2026-05-04 01:31 | 42.66930 | -73.83805 | 19874 ft | 420 kts | 202° |
| 2026-05-04 01:31 | 42.64156 | -73.85054 | 19881 ft | 420 kts | 202° |
| 2026-05-04 01:31 | 42.61398 | -73.86294 | 19877 ft | 420 kts | 202° |
| 2026-05-04 01:32 | 42.58645 | -73.87530 | 19882 ft | 420 kts | 202° |
| 2026-05-04 01:32 | 42.55862 | -73.88776 | 19875 ft | 419 kts | 202° |
| 2026-05-04 01:32 | 42.53124 | -73.90002 | 19878 ft | 420 kts | 202° |
| 2026-05-04 01:32 | 42.50338 | -73.91247 | 19877 ft | 420 kts | 202° |
| 2026-05-04 01:33 | 42.47545 | -73.92493 | 19880 ft | 420 kts | 202° |
| 2026-05-04 01:33 | 42.44803 | -73.93716 | 19879 ft | 420 kts | 202° |
| 2026-05-04 01:33 | 42.42012 | -73.94958 | 19882 ft | 420 kts | 202° |
| 2026-05-04 01:33 | 42.39242 | -73.96191 | 19879 ft | 420 kts | 202° |
| 2026-05-04 01:34 | 42.36458 | -73.97429 | 19872 ft | 420 kts | 202° |
| 2026-05-04 01:34 | 42.33722 | -73.98644 | 19882 ft | 420 kts | 202° |
| 2026-05-04 01:34 | 42.30937 | -73.99880 | 19879 ft | 420 kts | 202° |
| 2026-05-04 01:34 | 42.28160 | -74.01110 | 19880 ft | 420 kts | 202° |
| 2026-05-04 01:35 | 42.25371 | -74.02345 | 19888 ft | 420 kts | 202° |
| 2026-05-04 01:35 | 42.22592 | -74.03575 | 19887 ft | 420 kts | 202° |
| 2026-05-04 01:35 | 42.19822 | -74.04799 | 19819 ft | 416 kts | 202° |
| 2026-05-04 01:35 | 42.17082 | -74.06008 | 19272 ft | 414 kts | 202° |
| 2026-05-04 01:36 | 42.14357 | -74.07211 | 18698 ft | 412 kts | 202° |
| 2026-05-04 01:36 | 42.11651 | -74.08405 | 18167 ft | 410 kts | 202° |
| 2026-05-04 01:36 | 42.08966 | -74.09587 | 17656 ft | 406 kts | 202° |
| 2026-05-04 01:36 | 42.06319 | -74.10752 | 17157 ft | 403 kts | 202° |
| 2026-05-04 01:37 | 42.03646 | -74.11927 | 16645 ft | 400 kts | 202° |
| 2026-05-04 01:37 | 42.01006 | -74.13085 | 16126 ft | 397 kts | 202° |
| 2026-05-04 01:37 | 41.98418 | -74.14220 | 15630 ft | 394 kts | 202° |
| 2026-05-04 01:37 | 41.95806 | -74.15365 | 15125 ft | 391 kts | 202° |
| 2026-05-04 01:38 | 41.93260 | -74.16479 | 14621 ft | 389 kts | 202° |
| 2026-05-04 01:38 | 41.90673 | -74.17611 | 14099 ft | 386 kts | 202° |
| 2026-05-04 01:38 | 41.88132 | -74.18721 | 13590 ft | 384 kts | 202° |
| 2026-05-04 01:38 | 41.85619 | -74.19819 | 13093 ft | 381 kts | 202° |
| 2026-05-04 01:39 | 41.83091 | -74.20923 | 12586 ft | 379 kts | 202° |
| 2026-05-04 01:39 | 41.80602 | -74.22008 | 12073 ft | 376 kts | 202° |
| 2026-05-04 01:39 | 41.78142 | -74.23081 | 11568 ft | 374 kts | 202° |
| 2026-05-04 01:39 | 41.75667 | -74.24159 | 11060 ft | 371 kts | 202° |
| 2026-05-04 01:40 | 41.73240 | -74.25216 | 10591 ft | 367 kts | 202° |
| 2026-05-04 01:40 | 41.70838 | -74.26259 | 10474 ft | 353 kts | 202° |
| 2026-05-04 01:40 | 41.68578 | -74.27238 | 10393 ft | 339 kts | 202° |
| 2026-05-04 01:40 | 41.66346 | -74.28207 | 10266 ft | 328 kts | 202° |
| 2026-05-04 01:41 | 41.64214 | -74.29133 | 10155 ft | 317 kts | 202° |
| 2026-05-04 01:41 | 41.62168 | -74.30020 | 10044 ft | 306 kts | 203° |
| 2026-05-04 01:41 | 41.60171 | -74.30886 | 9927 ft | 297 kts | 203° |
| 2026-05-04 01:41 | 41.58225 | -74.31729 | 9711 ft | 291 kts | 203° |
| 2026-05-04 01:42 | 41.56317 | -74.32558 | 9360 ft | 292 kts | 203° |
| 2026-05-04 01:42 | 41.54376 | -74.33399 | 9025 ft | 290 kts | 203° |
| 2026-05-04 01:42 | 41.52478 | -74.34219 | 8720 ft | 289 kts | 203° |
| 2026-05-04 01:42 | 41.50557 | -74.35049 | 8410 ft | 287 kts | 203° |
| 2026-05-04 01:43 | 41.48674 | -74.35862 | 8108 ft | 286 kts | 203° |
| 2026-05-04 01:43 | 41.46779 | -74.36681 | 7785 ft | 285 kts | 203° |
| 2026-05-04 01:43 | 41.44899 | -74.37491 | 7472 ft | 283 kts | 202° |
| 2026-05-04 01:43 | 41.43027 | -74.38298 | 7166 ft | 282 kts | 203° |
| 2026-05-04 01:44 | 41.41184 | -74.39091 | 6966 ft | 277 kts | 203° |
| 2026-05-04 01:44 | 41.39371 | -74.39869 | 6949 ft | 268 kts | 203° |
| 2026-05-04 01:44 | 41.37573 | -74.40646 | 6949 ft | 275 kts | 202° |
| 2026-05-04 01:44 | 41.35746 | -74.41304 | 6945 ft | 276 kts | 189° |
| 2026-05-04 01:45 | 41.33847 | -74.40995 | 6942 ft | 280 kts | 162° |
| 2026-05-04 01:45 | 41.32036 | -74.39907 | 6957 ft | 286 kts | 156° |
| 2026-05-04 01:45 | 41.28501 | -74.37586 | 6958 ft | 285 kts | 154° |
| 2026-05-04 01:46 | 41.26718 | -74.36413 | 6960 ft | 286 kts | 155° |
| 2026-05-04 01:46 | 41.24934 | -74.35239 | 6921 ft | 282 kts | 155° |
| 2026-05-04 01:46 | 41.23178 | -74.34085 | 6582 ft | 283 kts | 155° |
| 2026-05-04 01:46 | 41.21427 | -74.32935 | 6270 ft | 283 kts | 155° |
| 2026-05-04 01:47 | 41.19664 | -74.31777 | 5982 ft | 281 kts | 155° |
| 2026-05-04 01:47 | 41.17915 | -74.30630 | 5688 ft | 281 kts | 155° |
| 2026-05-04 01:47 | 41.16157 | -74.29478 | 5377 ft | 280 kts | 155° |
| 2026-05-04 01:47 | 41.14420 | -74.28339 | 5135 ft | 278 kts | 155° |
| 2026-05-04 01:48 | 41.12703 | -74.27215 | 4975 ft | 272 kts | 155° |
| 2026-05-04 01:48 | 41.10976 | -74.26086 | 4971 ft | 280 kts | 155° |
| 2026-05-04 01:48 | 41.09241 | -74.24951 | 4973 ft | 279 kts | 155° |
| 2026-05-04 01:48 | 41.07490 | -74.23806 | 4977 ft | 280 kts | 155° |
| 2026-05-04 01:49 | 41.05725 | -74.22653 | 4974 ft | 280 kts | 155° |
| 2026-05-04 01:49 | 41.03988 | -74.21519 | 4966 ft | 280 kts | 155° |
| 2026-05-04 01:49 | 41.02228 | -74.20371 | 4977 ft | 281 kts | 155° |
| 2026-05-04 01:49 | 41.00485 | -74.19235 | 4980 ft | 280 kts | 155° |
| 2026-05-04 01:50 | 40.98725 | -74.18088 | 4979 ft | 281 kts | 155° |
| 2026-05-04 01:50 | 40.96983 | -74.16953 | 4874 ft | 277 kts | 155° |
| 2026-05-04 01:50 | 40.95269 | -74.15838 | 4528 ft | 279 kts | 155° |
| 2026-05-04 01:50 | 40.93526 | -74.14696 | 4275 ft | 278 kts | 153° |
| 2026-05-04 01:51 | 40.91837 | -74.13431 | 4004 ft | 277 kts | 151° |
| 2026-05-04 01:51 | 40.90185 | -74.12164 | 3734 ft | 276 kts | 151° |
| 2026-05-04 01:51 | 40.88513 | -74.10901 | 3445 ft | 276 kts | 152° |
| 2026-05-04 01:51 | 40.86861 | -74.09663 | 3191 ft | 274 kts | 152° |
| 2026-05-04 01:52 | 40.85180 | -74.08463 | 2987 ft | 268 kts | 161° |
| 2026-05-04 01:52 | 40.83424 | -74.08073 | 2960 ft | 249 kts | 185° |
| 2026-05-04 01:52 | 40.81780 | -74.08536 | 2655 ft | 241 kts | 209° |
| 2026-05-04 01:52 | 40.80319 | -74.09442 | 2351 ft | 219 kts | 213° |
| 2026-05-04 01:53 | 40.79007 | -74.10289 | 2081 ft | 198 kts | 213° |
| 2026-05-04 01:53 | 40.77828 | -74.11035 | 1829 ft | 181 kts | 213° |
| 2026-05-04 01:53 | 40.76744 | -74.11723 | 1602 ft | 167 kts | 214° |
| 2026-05-04 01:53 | 40.75755 | -74.12350 | 1385 ft | 149 kts | 215° |
| 2026-05-04 01:54 | 40.74822 | -74.12944 | 1179 ft | 151 kts | 214° |
| 2026-05-04 01:54 | 40.73886 | -74.13539 | 968 ft | 147 kts | 215° |
| 2026-05-04 01:54 | 40.72956 | -74.14127 | 746 ft | 147 kts | 213° |
| 2026-05-04 01:54 | 40.72057 | -74.14692 | 511 ft | 141 kts | 215° |
| 2026-05-04 01:55 | 40.71177 | -74.15279 | 353 ft | 145 kts | 211° |
| 2026-05-04 01:55 | 40.70262 | -74.15824 | 172 ft | 143 kts | 211° |
| 2026-05-04 01:55 | 40.69412 | -74.16370 | 32 ft | 123 kts | 208° |
| 2026-05-04 01:55 | 40.68774 | -74.16782 | 31 ft | 79 kts | 207° |
| 2026-05-04 01:56 | 40.68421 | -74.17009 | 31 ft | 30 kts | 210° |
| 2026-05-04 01:56 | 40.68269 | -74.17175 | 31 ft | 10 kts | 231° |
| 2026-05-04 01:56 | 40.68227 | -74.17252 | 31 ft | 10 kts | 236° |
| 2026-05-04 01:56 | 40.68184 | -74.17333 | 31 ft | 11 kts | 234° |
| 2026-05-04 01:57 | 40.68144 | -74.17418 | 31 ft | 9 kts | 259° |
| 2026-05-04 01:57 | 40.68167 | -74.17505 | 31 ft | 11 kts | 296° |
| 2026-05-04 01:57 | 40.68201 | -74.17597 | 31 ft | 11 kts | 296° |
| 2026-05-04 01:57 | 40.68250 | -74.17643 | 31 ft | 9 kts | 331° |
| 2026-05-04 01:58 | 40.68286 | -74.17683 | 31 ft | 1 kts | 312° |
| 2026-05-04 01:58 | 40.68313 | -74.17712 | 31 ft | 7 kts | 341° |
| 2026-05-04 01:58 | 40.68375 | -74.17690 | 31 ft | 11 kts | 24° |
| 2026-05-04 01:58 | 40.68456 | -74.17641 | 31 ft | 14 kts | 25° |
| 2026-05-04 01:59 | 40.68552 | -74.17583 | 31 ft | 14 kts | 23° |
| 2026-05-04 01:59 | 40.68608 | -74.17589 | 31 ft | 6 kts | 305° |
| 2026-05-04 01:59 | 40.68630 | -74.17648 | 31 ft | 2 kts | 299° |
| 2026-05-04 01:59 | 40.68654 | -74.17667 | 31 ft | 5 kts | 347° |
| 2026-05-04 02:00 | 40.68701 | -74.17665 | 31 ft | 5 kts | 5° |
| 2026-05-04 02:00 | 40.68715 | -74.17664 | 31 ft | 0 kts | 6° |